Fort George G Meade, Maryland
Current Conditions -  °F | °C
As of 10:12 PM on Thursday 27 Nov 2014 (Local Time) from KFME Reporting Station
Overcast Overcast  
Wind Chill: 26°   Ceiling: 4200
Heat Index: 34°   Visibility: 10mi
Dew Point: 32°   Wind: 10mph
Humidity: 93%   Direction: 280°W
Pressure: 30.18"   Gusts: NA
Location:  39.11°N, 76.73°W
Report Text: KFME 280312Z AUTO 28009KT 10SM BKN042 BKN048 OVC060 01/00 A3018 RMK AO1
Loading
Personal Weather Stations






























Interactive Weather Map New forecast layout! Learn more

10-Day Weather Forecast

Advertisements
Track Severe Weather on mobile